Time;durP1;ratioP1;P1;durP2;ratioP2;P2;SDS_P1;SDS_P2;PMS_P1;PMS_P2;Temp;Humidity;BMP_temperature;BMP_pressure;BME280_temperature;BME280_humidity;BME280_pressure;Samples;Min_cycle;Max_cycle;Signal;HPM_P1;HPM_P2
2021/07/26 00:02:04;;;;;;;15.30;9.23;;;20.70;97.30;;;;;;5034626;28;20522;-85
2021/07/26 00:04:30;;;;;;;14.23;9.37;;;20.70;97.30;;;;;;5035959;28;20492;-85
2021/07/26 00:06:55;;;;;;;18.47;9.90;;;20.70;97.30;;;;;;5034330;28;20544;-85
2021/07/26 00:09:21;;;;;;;15.13;9.47;;;20.70;97.30;;;;;;5034953;28;20184;-85
2021/07/26 00:11:46;;;;;;;19.47;8.90;;;20.70;97.30;;;;;;5034661;28;20708;-85
2021/07/26 00:14:12;;;;;;;21.17;10.00;;;20.60;97.30;;;;;;5034863;28;20176;-85
2021/07/26 00:16:38;;;;;;;17.70;10.20;;;20.60;97.30;;;;;;5034301;28;20208;-84
2021/07/26 00:19:03;;;;;;;15.07;9.70;;;20.60;97.30;;;;;;5034895;28;20692;-85
2021/07/26 00:21:29;;;;;;;13.83;9.60;;;20.60;97.30;;;;;;5033870;28;20201;-85
2021/07/26 00:23:54;;;;;;;15.97;10.63;;;20.60;97.30;;;;;;5034918;28;20181;-85
2021/07/26 00:26:20;;;;;;;16.43;10.30;;;20.60;97.30;;;;;;5034560;28;20176;-85
2021/07/26 00:28:46;;;;;;;17.10;9.80;;;20.60;97.30;;;;;;5034360;28;20275;-85
2021/07/26 00:31:11;;;;;;;16.07;10.00;;;20.60;97.30;;;;;;5033884;28;20227;-85
2021/07/26 00:34:24;;;;;;;14.10;10.20;;;20.60;97.30;;;;;;5034663;28;20177;-85
2021/07/26 00:36:55;;;;;;;15.80;10.47;;;20.60;97.30;;;;;;5034282;28;20177;-85
2021/07/26 00:39:23;;;;;;;16.67;10.10;;;20.60;97.30;;;;;;5033993;28;20469;-85
2021/07/26 00:41:49;;;;;;;15.40;10.87;;;20.60;97.30;;;;;;5033925;28;20439;-85
2021/07/26 00:44:16;;;;;;;14.70;10.07;;;20.60;97.30;;;;;;5033876;28;20419;-85
2021/07/26 00:46:43;;;;;;;14.13;9.03;;;20.60;97.30;;;;;;5035406;28;20905;-85
2021/07/26 00:49:11;;;;;;;20.60;10.40;;;20.60;97.30;;;;;;5035497;28;20410;-85
2021/07/26 00:54:28;;;;;;;14.23;9.63;;;20.60;97.30;;;;;;5034311;28;20494;-79
2021/07/26 00:56:56;;;;;;;21.20;10.30;;;20.50;97.30;;;;;;5037840;28;20420;-79
2021/07/26 00:59:23;;;;;;;14.23;9.80;;;20.50;97.30;;;;;;5036516;28;20407;-79
2021/07/26 01:01:48;;;;;;;16.37;11.00;;;20.50;97.30;;;;;;5037164;28;20423;-79
2021/07/26 01:04:14;;;;;;;15.53;10.43;;;20.50;97.30;;;;;;5037157;28;20415;-79
2021/07/26 01:06:40;;;;;;;18.63;10.83;;;20.40;97.30;;;;;;5037026;28;20177;-79
2021/07/26 01:09:06;;;;;;;24.80;11.43;;;20.40;97.30;;;;;;5037537;28;20465;-79
2021/07/26 01:11:32;;;;;;;19.07;10.73;;;20.40;97.30;;;;;;5036622;28;20599;-79
2021/07/26 01:13:58;;;;;;;19.97;10.53;;;20.40;97.30;;;;;;5037177;28;20180;-79
2021/07/26 01:16:24;;;;;;;15.80;10.30;;;20.40;97.30;;;;;;5038261;28;20426;-79
2021/07/26 01:18:51;;;;;;;16.90;11.40;;;20.40;97.30;;;;;;5036538;28;20176;-79
2021/07/26 01:21:18;;;;;;;16.43;10.10;;;20.30;97.30;;;;;;5036585;28;20458;-78
2021/07/26 01:23:46;;;;;;;18.43;11.47;;;20.30;97.30;;;;;;5036953;28;20438;-79
2021/07/26 01:26:15;;;;;;;20.03;10.90;;;20.30;97.30;;;;;;5035938;28;20454;-79
2021/07/26 01:28:43;;;;;;;27.73;11.50;;;20.30;97.30;;;;;;5036349;28;20526;-79
2021/07/26 01:31:10;;;;;;;16.43;11.23;;;20.30;97.30;;;;;;5037651;28;21070;-79
2021/07/26 01:33:36;;;;;;;15.30;10.60;;;20.20;97.30;;;;;;5036318;28;20770;-79
2021/07/26 01:36:02;;;;;;;17.13;11.40;;;20.20;97.30;;;;;;5036384;28;20423;-79
2021/07/26 01:38:28;;;;;;;16.50;10.77;;;20.20;97.30;;;;;;5036118;28;20445;-79
2021/07/26 01:40:56;;;;;;;15.47;10.70;;;20.20;97.30;;;;;;5036138;28;20204;-78
2021/07/26 01:43:32;;;;;;;15.60;10.03;;;20.20;97.30;;;;;;5035334;28;20430;-79
2021/07/26 01:46:24;;;;;;;20.77;10.63;;;20.20;97.30;;;;;;5036597;28;20434;-79
2021/07/26 01:49:01;;;;;;;23.07;11.63;;;20.20;97.30;;;;;;5016009;28;20420;-79
2021/07/26 01:51:40;;;;;;;18.57;10.40;;;20.10;97.30;;;;;;5016428;28;20472;-79
2021/07/26 01:54:06;;;;;;;19.20;10.40;;;20.10;97.30;;;;;;5016099;28;20475;-79
2021/07/26 01:56:33;;;;;;;22.27;10.90;;;20.10;97.30;;;;;;5032498;28;20439;-79
2021/07/26 01:59:03;;;;;;;19.00;10.10;;;20.10;97.30;;;;;;5015882;28;20679;-79
2021/07/26 02:01:28;;;;;;;24.60;10.77;;;20.00;97.30;;;;;;5025625;28;20483;-79
2021/07/26 02:03:56;;;;;;;18.20;10.40;;;20.00;97.30;;;;;;5035840;28;20496;-79
2021/07/26 02:06:22;;;;;;;31.90;10.83;;;20.00;97.30;;;;;;5036196;28;20176;-79
2021/07/26 02:08:47;;;;;;;28.63;10.80;;;20.00;97.30;;;;;;5035347;28;20457;-79
2021/07/26 02:11:13;;;;;;;18.53;10.57;;;20.00;97.30;;;;;;5036243;28;20478;-78
2021/07/26 02:13:38;;;;;;;17.80;10.10;;;19.90;97.30;;;;;;5035424;28;20184;-79
2021/07/26 02:16:12;;;;;;;20.20;10.67;;;19.90;97.30;;;;;;5035626;28;20183;-79
2021/07/26 02:18:38;;;;;;;26.20;9.80;;;19.90;97.30;;;;;;5035836;28;20572;-79
2021/07/26 02:21:03;;;;;;;15.50;10.30;;;19.90;97.30;;;;;;5035679;28;20447;-79
2021/07/26 02:23:29;;;;;;;17.40;10.10;;;19.80;97.30;;;;;;5036005;28;20430;-79
2021/07/26 02:25:55;;;;;;;19.50;10.03;;;19.80;97.30;;;;;;5035917;28;20330;-79
2021/07/26 02:28:20;;;;;;;18.10;9.97;;;19.70;97.30;;;;;;5035685;28;20183;-79
2021/07/26 02:30:46;;;;;;;16.80;10.50;;;19.70;97.30;;;;;;5035297;28;20211;-79
2021/07/26 02:33:11;;;;;;;20.60;9.87;;;19.70;97.30;;;;;;5035648;28;20190;-79
2021/07/26 02:35:37;;;;;;;17.33;9.73;;;19.60;97.30;;;;;;5035793;28;20176;-79
2021/07/26 02:38:03;;;;;;;28.40;10.93;;;19.60;97.30;;;;;;5035122;28;20184;-79
2021/07/26 02:40:29;;;;;;;19.23;10.60;;;19.60;97.30;;;;;;5035028;28;20242;-79
2021/07/26 02:42:55;;;;;;;18.40;11.40;;;19.60;97.30;;;;;;5034971;28;20196;-79
2021/07/26 02:45:25;;;;;;;16.33;10.50;;;19.60;97.30;;;;;;5035805;28;20806;-79
2021/07/26 02:47:50;;;;;;;15.67;11.10;;;19.60;97.30;;;;;;5019125;28;20515;-79
2021/07/26 02:50:16;;;;;;;15.10;10.47;;;19.60;97.30;;;;;;5017157;28;20545;-79
2021/07/26 02:52:42;;;;;;;15.90;10.40;;;19.60;97.30;;;;;;5015178;28;20233;-79
2021/07/26 02:55:08;;;;;;;20.00;12.00;;;19.60;97.30;;;;;;5015292;28;20178;-79
2021/07/26 02:57:34;;;;;;;21.73;12.10;;;19.60;97.30;;;;;;5015729;28;20181;-79
2021/07/26 03:00:00;;;;;;;19.80;11.23;;;19.60;97.30;;;;;;5015965;28;20507;-80
2021/07/26 03:02:29;;;;;;;18.67;11.80;;;19.60;97.30;;;;;;5015739;28;20208;-79
2021/07/26 03:04:58;;;;;;;16.30;10.83;;;19.60;97.30;;;;;;5014629;28;20933;-79
2021/07/26 03:07:24;;;;;;;20.37;12.00;;;19.60;97.30;;;;;;5014437;28;20458;-80
2021/07/26 03:09:51;;;;;;;17.83;10.80;;;19.60;97.30;;;;;;5014828;28;20540;-80
2021/07/26 03:12:19;;;;;;;15.23;10.57;;;19.60;97.30;;;;;;5014268;28;20446;-80
2021/07/26 03:14:47;;;;;;;17.77;11.40;;;19.60;97.30;;;;;;5016469;28;20420;-80
2021/07/26 03:17:15;;;;;;;19.30;11.13;;;19.60;97.30;;;;;;5015813;28;20420;-79
2021/07/26 03:19:44;;;;;;;21.47;11.27;;;19.60;97.30;;;;;;5015377;28;20416;-79
2021/07/26 03:22:46;;;;;;;19.47;11.10;;;19.60;97.30;;;;;;5015659;28;20446;-79
2021/07/26 03:25:12;;;;;;;23.23;11.10;;;19.50;97.30;;;;;;5015359;28;20419;-79
2021/07/26 03:27:37;;;;;;;15.67;11.07;;;19.50;97.30;;;;;;5016420;28;20436;-79
2021/07/26 03:30:04;;;;;;;22.83;11.50;;;19.50;97.30;;;;;;5027302;28;20624;-79
2021/07/26 03:32:29;;;;;;;19.20;11.47;;;19.50;97.30;;;;;;5034450;28;20204;-79
2021/07/26 03:34:55;;;;;;;20.00;11.50;;;19.50;97.30;;;;;;5034137;28;20971;-79
2021/07/26 03:37:20;;;;;;;19.57;10.53;;;19.50;97.30;;;;;;5034600;28;20578;-79
2021/07/26 03:39:46;;;;;;;22.67;11.23;;;19.50;97.30;;;;;;5034849;28;20180;-80
2021/07/26 03:42:11;;;;;;;19.90;10.93;;;19.50;97.30;;;;;;5034720;28;20274;-80
2021/07/26 03:44:37;;;;;;;25.53;11.10;;;19.50;97.30;;;;;;5034411;28;20181;-80
2021/07/26 03:47:03;;;;;;;18.67;10.50;;;19.50;97.30;;;;;;5035358;28;20192;-80
2021/07/26 03:49:28;;;;;;;16.10;10.97;;;19.50;97.30;;;;;;5034890;28;20267;-80
2021/07/26 03:51:54;;;;;;;16.37;10.63;;;19.60;97.30;;;;;;5036363;28;20258;-80
2021/07/26 03:54:20;;;;;;;17.37;10.07;;;19.50;97.30;;;;;;5034754;28;20217;-81
2021/07/26 03:56:45;;;;;;;16.50;10.60;;;19.50;97.30;;;;;;5034623;28;20211;-80
2021/07/26 03:59:11;;;;;;;18.80;11.30;;;19.40;97.30;;;;;;5034509;28;20215;-80
2021/07/26 04:01:36;;;;;;;18.27;10.67;;;19.50;97.30;;;;;;5034534;28;20192;-80
2021/07/26 04:04:02;;;;;;;15.03;10.13;;;19.40;97.30;;;;;;5034939;28;20188;-80
2021/07/26 04:06:28;;;;;;;17.60;10.33;;;19.40;97.30;;;;;;5035017;28;20179;-80
2021/07/26 04:08:54;;;;;;;18.43;11.40;;;19.40;97.30;;;;;;5034040;28;20208;-80
2021/07/26 04:13:51;;;;;;;15.67;11.03;;;19.40;97.30;;;;;;5035940;28;21178;-80
2021/07/26 04:16:16;;;;;;;16.83;10.53;;;19.40;97.30;;;;;;5034750;28;20415;-80
2021/07/26 04:18:43;;;;;;;20.07;10.97;;;19.40;97.30;;;;;;5036500;28;20418;-80
2021/07/26 04:21:13;;;;;;;19.57;10.03;;;19.50;97.30;;;;;;5037786;28;20196;-80
2021/07/26 04:23:41;;;;;;;20.50;11.10;;;19.50;97.30;;;;;;5037928;28;20430;-80
2021/07/26 04:26:08;;;;;;;20.00;10.13;;;19.50;97.30;;;;;;5038597;28;20411;-80
2021/07/26 04:28:34;;;;;;;17.03;11.97;;;19.50;97.30;;;;;;5039270;28;20411;-80
2021/07/26 04:30:59;;;;;;;14.77;10.27;;;19.50;97.30;;;;;;5039233;28;20464;-80
2021/07/26 04:33:25;;;;;;;19.40;11.70;;;19.60;97.30;;;;;;5039586;28;20431;-80
2021/07/26 04:35:50;;;;;;;18.00;10.20;;;19.60;97.30;;;;;;5038008;28;20183;-81
2021/07/26 04:38:16;;;;;;;21.83;11.47;;;19.60;97.30;;;;;;5037963;28;20239;-79
2021/07/26 04:40:42;;;;;;;16.20;10.87;;;19.60;97.30;;;;;;5037421;28;20637;-80
2021/07/26 04:43:08;;;;;;;19.60;10.57;;;19.70;97.30;;;;;;5037079;28;20199;-80
2021/07/26 04:45:34;;;;;;;16.13;10.57;;;19.70;97.30;;;;;;5036514;28;20212;-80
2021/07/26 04:48:01;;;;;;;29.87;12.00;;;19.70;97.30;;;;;;5036728;28;20431;-81
2021/07/26 04:50:30;;;;;;;19.00;11.90;;;19.80;97.30;;;;;;5035805;28;20463;-80
2021/07/26 04:52:56;;;;;;;15.97;10.60;;;19.80;97.30;;;;;;5035419;28;20486;-80
2021/07/26 04:55:21;;;;;;;21.93;11.50;;;19.80;97.30;;;;;;5035164;28;20427;-80
2021/07/26 04:57:47;;;;;;;17.90;11.23;;;19.90;97.30;;;;;;5035398;28;20176;-79
2021/07/26 05:00:13;;;;;;;20.47;10.60;;;19.90;97.30;;;;;;5035485;28;20207;-81
2021/07/26 05:02:39;;;;;;;22.03;11.73;;;19.90;97.30;;;;;;5032572;28;20208;-81
2021/07/26 05:05:06;;;;;;;18.63;10.90;;;20.00;97.30;;;;;;5032728;28;20579;-80
2021/07/26 05:07:33;;;;;;;16.57;11.80;;;20.00;97.30;;;;;;5034262;28;20952;-81
2021/07/26 05:10:01;;;;;;;16.33;10.63;;;20.10;97.30;;;;;;5037309;28;20463;-80
2021/07/26 05:12:29;;;;;;;16.33;9.97;;;20.10;97.30;;;;;;5036658;28;20441;-79
2021/07/26 05:14:55;;;;;;;19.83;10.30;;;20.20;97.30;;;;;;5036846;28;20453;-79
2021/07/26 05:17:26;;;;;;;16.57;10.57;;;20.20;97.30;;;;;;5036215;28;20422;-79
2021/07/26 05:19:52;;;;;;;22.33;11.27;;;20.30;97.30;;;;;;5036589;28;20481;-79
2021/07/26 05:22:18;;;;;;;14.70;9.33;;;20.30;97.30;;;;;;5036745;28;20447;-79
2021/07/26 05:24:44;;;;;;;14.93;10.33;;;20.30;97.30;;;;;;5036669;28;20248;-80
2021/07/26 05:27:09;;;;;;;21.73;11.10;;;20.40;97.30;;;;;;5037116;28;20505;-80
2021/07/26 05:29:35;;;;;;;23.03;10.77;;;20.40;97.30;;;;;;5035442;28;20204;-79
2021/07/26 05:32:00;;;;;;;16.27;8.07;;;20.30;97.30;;;;;;5036291;28;20239;-79
2021/07/26 05:34:27;;;;;;;14.50;8.37;;;20.30;97.30;;;;;;5036654;28;20638;-80
2021/07/26 05:36:54;;;;;;;16.70;8.60;;;20.30;97.30;;;;;;5036108;28;20172;-80
2021/07/26 05:39:19;;;;;;;16.07;7.83;;;20.30;97.30;;;;;;5036562;28;20403;-80
2021/07/26 05:41:45;;;;;;;18.63;7.67;;;20.30;97.30;;;;;;5036302;28;20442;-79
2021/07/26 05:44:12;;;;;;;15.60;7.20;;;20.30;97.30;;;;;;5036321;28;20181;-79
2021/07/26 05:46:37;;;;;;;11.47;7.80;;;20.30;97.30;;;;;;5037320;28;20192;-80
2021/07/26 05:49:03;;;;;;;10.53;7.10;;;20.20;97.30;;;;;;5035547;28;20653;-79
2021/07/26 05:51:29;;;;;;;13.83;7.37;;;20.20;97.30;;;;;;5035227;28;20223;-79
2021/07/26 05:53:55;;;;;;;15.10;7.27;;;20.30;97.30;;;;;;5034992;28;20489;-80
2021/07/26 05:56:21;;;;;;;18.63;7.47;;;20.30;97.30;;;;;;5035050;28;20176;-80
2021/07/26 05:58:49;;;;;;;10.70;7.10;;;20.30;97.30;;;;;;5035490;28;20933;-79
2021/07/26 06:03:44;;;;;;;13.07;8.03;;;20.30;97.30;;;;;;5036640;28;20445;-79
2021/07/26 06:06:10;;;;;;;14.97;7.60;;;20.40;97.30;;;;;;5036607;28;20434;-80
2021/07/26 06:08:35;;;;;;;23.73;7.93;;;20.40;97.30;;;;;;5035135;28;20924;-79
2021/07/26 06:11:02;;;;;;;12.43;6.73;;;20.40;97.30;;;;;;5034762;28;20242;-79
2021/07/26 06:13:28;;;;;;;13.17;7.90;;;20.50;97.30;;;;;;5035133;28;20173;-79
2021/07/26 06:15:54;;;;;;;14.73;7.27;;;20.60;97.30;;;;;;5035004;28;20419;-79
2021/07/26 06:18:20;;;;;;;11.00;7.20;;;20.70;97.30;;;;;;5035187;28;20457;-79
2021/07/26 06:20:45;;;;;;;23.87;6.53;;;20.70;97.30;;;;;;5036094;28;20252;-79
2021/07/26 06:23:11;;;;;;;15.03;7.20;;;20.70;97.30;;;;;;5035123;28;20179;-79
2021/07/26 06:25:36;;;;;;;12.50;7.10;;;20.80;97.30;;;;;;5036196;28;20669;-78
2021/07/26 06:28:02;;;;;;;11.47;6.27;;;20.90;97.30;;;;;;5035209;28;20190;-79
2021/07/26 06:30:28;;;;;;;8.60;5.83;;;20.90;97.30;;;;;;5034386;28;20200;-79
2021/07/26 06:32:53;;;;;;;14.20;6.00;;;21.00;97.30;;;;;;5034149;28;20268;-78
2021/07/26 06:35:20;;;;;;;9.13;5.50;;;21.10;97.30;;;;;;5034547;28;20279;-79
2021/07/26 06:37:45;;;;;;;17.47;5.90;;;21.10;97.30;;;;;;5034980;28;20238;-79
2021/07/26 06:40:11;;;;;;;10.57;6.60;;;21.20;97.30;;;;;;5035630;28;20411;-79
2021/07/26 06:42:37;;;;;;;13.47;6.50;;;21.30;97.30;;;;;;5036235;28;20193;-79
2021/07/26 06:45:04;;;;;;;17.43;5.77;;;21.30;97.30;;;;;;5034405;28;20424;-79
2021/07/26 06:47:31;;;;;;;8.40;5.20;;;21.40;97.30;;;;;;5035544;28;20644;-80
2021/07/26 06:49:57;;;;;;;13.70;5.67;;;21.50;97.30;;;;;;5034168;28;21017;-80
2021/07/26 06:52:23;;;;;;;11.43;5.03;;;21.60;97.30;;;;;;5033872;28;20517;-80
2021/07/26 06:54:49;;;;;;;8.30;4.90;;;21.80;97.30;;;;;;5033934;28;20420;-80
2021/07/26 06:57:14;;;;;;;9.80;5.00;;;21.90;97.30;;;;;;5034891;28;20423;-80
2021/07/26 06:59:40;;;;;;;7.90;5.20;;;22.00;97.30;;;;;;5035273;28;20168;-80
2021/07/26 07:02:05;;;;;;;10.93;5.00;;;22.10;97.30;;;;;;5033991;28;20626;-79
2021/07/26 07:04:31;;;;;;;9.27;5.70;;;22.20;97.30;;;;;;5034394;28;20243;-80
2021/07/26 07:06:57;;;;;;;9.30;5.50;;;22.30;97.30;;;;;;5034476;28;20207;-80
2021/07/26 07:09:22;;;;;;;9.23;5.10;;;22.40;97.30;;;;;;5035545;28;20172;-80
2021/07/26 07:11:48;;;;;;;6.97;5.40;;;22.60;97.30;;;;;;5034220;28;20262;-79
2021/07/26 07:14:13;;;;;;;7.23;4.67;;;22.60;97.30;;;;;;5034256;28;20370;-80
2021/07/26 07:16:39;;;;;;;10.80;4.67;;;22.70;97.30;;;;;;5034164;28;20180;-81
2021/07/26 07:19:04;;;;;;;8.00;4.40;;;22.80;97.30;;;;;;5031729;28;20172;-80
2021/07/26 07:21:31;;;;;;;8.10;4.83;;;22.90;97.30;;;;;;5031982;28;20232;-80
2021/07/26 07:24:00;;;;;;;8.57;5.10;;;23.00;97.30;;;;;;5032043;28;20267;-80
2021/07/26 07:26:26;;;;;;;8.60;5.40;;;23.00;97.30;;;;;;5032294;28;20431;-81
2021/07/26 07:28:52;;;;;;;6.80;5.20;;;23.10;97.30;;;;;;5031932;28;20415;-81
2021/07/26 07:31:23;;;;;;;11.47;5.73;;;23.20;97.30;;;;;;5031919;28;20514;-81
2021/07/26 07:33:50;;;;;;;8.30;5.50;;;23.30;97.30;;;;;;5031051;28;20423;-81
2021/07/26 07:36:15;;;;;;;8.67;5.67;;;23.40;97.30;;;;;;5033096;28;20914;-81
2021/07/26 07:38:41;;;;;;;8.20;5.87;;;23.40;97.30;;;;;;5033706;28;20733;-80
2021/07/26 07:41:06;;;;;;;12.03;6.00;;;23.50;97.30;;;;;;5034046;28;20673;-81
2021/07/26 07:43:32;;;;;;;8.33;5.50;;;23.60;97.30;;;;;;5031080;28;20619;-80
2021/07/26 07:45:59;;;;;;;6.43;5.30;;;23.70;97.30;;;;;;5031778;28;20180;-81
2021/07/26 07:48:27;;;;;;;8.03;5.90;;;23.70;97.30;;;;;;5032426;28;20188;-79
2021/07/26 07:50:53;;;;;;;7.20;5.53;;;23.80;97.30;;;;;;5035291;28;20466;-79
2021/07/26 07:53:19;;;;;;;6.83;5.40;;;23.80;97.30;;;;;;5036072;28;20474;-79
2021/07/26 07:55:44;;;;;;;8.23;5.40;;;23.90;97.30;;;;;;5038401;28;20418;-79
2021/07/26 07:58:10;;;;;;;7.60;5.10;;;23.90;97.30;;;;;;5038965;28;20184;-79
2021/07/26 08:00:36;;;;;;;10.33;5.63;;;24.00;97.30;;;;;;5038328;28;20187;-79
2021/07/26 08:03:03;;;;;;;6.80;5.07;;;24.10;97.30;;;;;;5038054;28;20173;-80
2021/07/26 08:05:28;;;;;;;7.30;5.57;;;24.20;97.30;;;;;;5039994;28;20168;-79
2021/07/26 08:07:54;;;;;;;7.70;5.10;;;24.30;96.00;;;;;;5037616;28;20833;-79
2021/07/26 08:10:20;;;;;;;7.20;5.20;;;24.30;96.80;;;;;;5039456;28;20242;-81
2021/07/26 08:12:46;;;;;;;7.50;5.50;;;24.40;95.80;;;;;;5037592;28;20197;-80
2021/07/26 08:15:12;;;;;;;9.60;4.97;;;24.50;95.50;;;;;;5037888;28;20180;-79
2021/07/26 08:17:42;;;;;;;7.87;4.30;;;24.50;94.70;;;;;;5039029;28;20429;-79
2021/07/26 08:20:10;;;;;;;5.90;4.40;;;24.60;94.80;;;;;;5038174;28;20454;-79
2021/07/26 08:22:36;;;;;;;7.07;3.53;;;24.60;92.90;;;;;;5037395;28;20449;-79
2021/07/26 08:25:02;;;;;;;5.47;3.77;;;24.70;91.20;;;;;;5037506;28;20486;-79
2021/07/26 08:27:28;;;;;;;4.93;4.13;;;24.80;91.60;;;;;;5038053;28;20181;-79
2021/07/26 08:29:53;;;;;;;8.50;4.83;;;24.80;91.40;;;;;;5019712;28;20486;-80
2021/07/26 08:32:19;;;;;;;7.40;4.43;;;24.90;92.10;;;;;;5017667;28;20228;-79
2021/07/26 08:34:44;;;;;;;6.63;4.63;;;25.00;92.10;;;;;;5017912;28;20181;-79
2021/07/26 08:37:10;;;;;;;8.73;4.80;;;25.00;91.80;;;;;;5036236;28;20181;-79
2021/07/26 08:39:38;;;;;;;10.03;5.47;;;25.10;91.60;;;;;;5036984;28;20177;-79
2021/07/26 08:42:04;;;;;;;6.67;5.30;;;25.10;92.10;;;;;;5037300;28;20210;-79
2021/07/26 08:44:33;;;;;;;7.47;5.00;;;25.10;92.90;;;;;;5036537;28;20419;-79
2021/07/26 08:46:59;;;;;;;9.90;5.73;;;25.20;92.80;;;;;;5036848;28;20435;-79
2021/07/26 08:49:28;;;;;;;9.20;5.80;;;25.20;93.20;;;;;;5037265;28;20484;-80
2021/07/26 08:51:55;;;;;;;9.97;5.30;;;25.30;93.20;;;;;;5036799;28;20470;-80
2021/07/26 08:54:21;;;;;;;7.27;5.57;;;25.30;93.40;;;;;;5036943;28;20467;-79
2021/07/26 08:56:50;;;;;;;9.70;5.53;;;25.40;93.90;;;;;;5037165;28;20841;-80
2021/07/26 08:59:15;;;;;;;10.83;5.30;;;25.40;93.70;;;;;;5037287;28;20180;-80
2021/07/26 09:01:43;;;;;;;7.87;5.73;;;25.50;93.10;;;;;;5036379;28;20451;-80
2021/07/26 09:04:09;;;;;;;9.70;5.10;;;25.60;93.30;;;;;;5036799;28;20556;-79
2021/07/26 09:06:34;;;;;;;7.53;4.90;;;25.70;93.20;;;;;;5036932;28;20462;-79
2021/07/26 09:09:01;;;;;;;8.47;4.43;;;25.70;92.90;;;;;;5037155;28;20180;-80
2021/07/26 09:11:43;;;;;;;9.23;5.20;;;25.80;92.90;;;;;;5036292;28;20222;-80
2021/07/26 09:14:09;;;;;;;6.97;4.90;;;25.90;91.60;;;;;;5036433;28;20415;-80
2021/07/26 09:16:34;;;;;;;8.37;4.70;;;25.90;91.70;;;;;;5036478;28;20431;-80
2021/07/26 09:19:07;;;;;;;8.30;5.47;;;26.00;90.90;;;;;;5036174;28;20184;-80
2021/07/26 09:21:56;;;;;;;8.70;5.70;;;26.10;92.30;;;;;;5036442;28;20586;-79
2021/07/26 09:24:25;;;;;;;8.17;5.17;;;26.20;90.70;;;;;;5036902;28;20435;-80
2021/07/26 09:26:51;;;;;;;7.27;5.00;;;26.20;90.20;;;;;;5036900;28;20419;-79
2021/07/26 09:29:28;;;;;;;6.80;4.90;;;26.30;90.30;;;;;;5037659;28;20750;-79
2021/07/26 09:32:01;;;;;;;12.93;4.50;;;26.30;92.40;;;;;;5037389;28;20463;-80
2021/07/26 09:34:28;;;;;;;8.03;4.80;;;26.50;90.10;;;;;;5036590;28;20428;-80
2021/07/26 09:36:53;;;;;;;4.93;3.97;;;26.50;89.50;;;;;;5036924;28;20423;-80
2021/07/26 09:39:27;;;;;;;10.00;4.57;;;26.60;88.00;;;;;;5036252;28;20927;-80
2021/07/26 09:41:54;;;;;;;7.60;5.27;;;26.70;87.50;;;;;;5033341;28;20259;-80
2021/07/26 09:44:24;;;;;;;8.07;5.00;;;26.70;88.20;;;;;;5036697;28;20431;-79
2021/07/26 09:46:50;;;;;;;4.83;4.30;;;26.70;88.10;;;;;;5035936;28;20435;-80
2021/07/26 09:49:18;;;;;;;8.40;4.83;;;26.70;89.70;;;;;;5036362;28;20411;-80
2021/07/26 09:52:03;;;;;;;7.90;4.43;;;26.70;89.50;;;;;;5036925;28;20455;-80
2021/07/26 09:54:48;;;;;;;11.53;4.63;;;26.70;89.00;;;;;;5036567;28;20442;-79
2021/07/26 09:57:24;;;;;;;9.17;5.10;;;26.60;88.80;;;;;;5036031;28;20963;-80
2021/07/26 09:59:51;;;;;;;8.00;4.77;;;26.70;88.50;;;;;;5035771;28;20423;-80
2021/07/26 10:02:23;;;;;;;6.50;4.60;;;26.70;88.40;;;;;;5035283;28;20443;-80
2021/07/26 10:04:49;;;;;;;8.17;5.00;;;26.70;90.30;;;;;;5037219;28;20423;-80
2021/07/26 10:07:17;;;;;;;5.33;4.10;;;26.80;87.60;;;;;;5035865;28;20470;-80
2021/07/26 10:09:45;;;;;;;5.90;4.47;;;26.90;86.40;;;;;;5035148;28;20268;-80
2021/07/26 10:12:22;;;;;;;7.17;3.93;;;27.00;87.00;;;;;;5036257;28;20506;-79
2021/07/26 10:14:49;;;;;;;6.60;4.37;;;27.10;87.30;;;;;;5034951;28;20419;-79
2021/07/26 10:17:14;;;;;;;8.07;4.73;;;27.30;85.40;;;;;;5035839;28;20434;-80
2021/07/26 10:19:40;;;;;;;6.80;4.30;;;27.40;86.40;;;;;;5035470;28;20427;-79
2021/07/26 10:22:11;;;;;;;8.63;4.50;;;27.60;84.70;;;;;;5035021;28;20795;-80
2021/07/26 10:24:54;;;;;;;6.20;4.87;;;27.60;83.90;;;;;;5036067;28;20684;-80
2021/07/26 10:27:28;;;;;;;4.67;3.93;;;27.70;85.20;;;;;;5024231;28;20432;-79
2021/07/26 10:29:56;;;;;;;5.37;4.30;;;27.70;85.20;;;;;;5026243;28;20948;-80
2021/07/26 10:32:38;;;;;;;7.17;4.30;;;27.80;85.60;;;;;;5035164;28;20462;-80
2021/07/26 10:35:24;;;;;;;7.33;5.10;;;27.90;85.90;;;;;;5034805;28;20426;-79
2021/07/26 10:37:49;;;;;;;7.30;4.97;;;27.90;84.60;;;;;;5034726;28;20847;-80
2021/07/26 10:40:20;;;;;;;12.70;5.30;;;27.90;85.20;;;;;;5035022;28;20463;-80
2021/07/26 10:42:46;;;;;;;5.70;5.03;;;27.90;85.10;;;;;;5034668;28;20207;-80
2021/07/26 10:45:31;;;;;;;6.97;4.70;;;27.90;84.90;;;;;;5034131;28;20427;-79
2021/07/26 10:48:28;;;;;;;6.70;4.83;;;27.90;85.70;;;;;;5035094;28;20557;-79
2021/07/26 10:50:55;;;;;;;6.73;4.63;;;27.90;85.90;;;;;;5034306;28;20458;-79
2021/07/26 10:53:36;;;;;;;8.77;5.27;;;27.90;85.80;;;;;;5034691;28;21054;-79
2021/07/26 10:56:14;;;;;;;7.47;4.50;;;28.00;87.40;;;;;;5034526;28;20519;-79
2021/07/26 10:58:40;;;;;;;5.77;4.40;;;28.00;86.90;;;;;;5035048;28;20422;-79
2021/07/26 11:01:21;;;;;;;7.13;5.00;;;28.10;86.40;;;;;;5035464;28;20883;-79
2021/07/26 11:03:51;;;;;;;5.40;4.20;;;28.20;83.90;;;;;;5034424;28;20246;-79
2021/07/26 11:06:35;;;;;;;9.50;4.30;;;28.30;83.50;;;;;;5034303;28;20431;-79
2021/07/26 11:09:19;;;;;;;9.63;4.50;;;28.40;83.10;;;;;;5033936;28;20419;-79
2021/07/26 11:11:49;;;;;;;6.43;4.60;;;28.50;82.80;;;;;;5030364;28;20477;-79
2021/07/26 11:14:15;;;;;;;6.60;4.30;;;28.50;85.30;;;;;;5034094;28;20415;-79
2021/07/26 11:16:58;;;;;;;5.50;4.43;;;28.50;85.00;;;;;;5036052;28;20488;-79
2021/07/26 11:19:35;;;;;;;5.20;4.30;;;28.50;84.10;;;;;;5033686;28;20415;-79
2021/07/26 11:22:14;;;;;;;6.30;4.40;;;28.50;80.60;;;;;;5033718;28;20443;-80
2021/07/26 11:24:40;;;;;;;6.47;4.67;;;28.60;81.50;;;;;;5034428;28;20431;-80
2021/07/26 11:27:09;;;;;;;5.77;4.00;;;28.60;81.60;;;;;;5032969;28;20434;-79
2021/07/26 11:29:35;;;;;;;6.07;4.33;;;28.60;80.80;;;;;;5033682;28;20568;-79
2021/07/26 11:32:01;;;;;;;6.10;4.40;;;28.70;82.20;;;;;;5030602;28;20474;-80
2021/07/26 11:34:33;;;;;;;7.13;4.30;;;28.80;82.40;;;;;;5033744;28;20187;-79
2021/07/26 11:37:08;;;;;;;6.53;4.80;;;28.90;82.20;;;;;;5033972;28;20438;-79
2021/07/26 11:39:54;;;;;;;7.73;4.30;;;29.00;80.90;;;;;;5033595;28;20429;-79
2021/07/26 11:42:32;;;;;;;5.07;4.50;;;29.10;82.50;;;;;;5018678;28;20446;-80
2021/07/26 11:45:01;;;;;;;5.60;4.50;;;29.20;83.10;;;;;;5034107;28;20426;-80
2021/07/26 11:47:34;;;;;;;8.40;4.83;;;29.30;81.70;;;;;;5035405;28;20418;-80
2021/07/26 11:50:05;;;;;;;6.93;4.60;;;29.50;81.40;;;;;;5020875;28;20415;-80
2021/07/26 11:52:30;;;;;;;5.40;4.20;;;29.40;80.90;;;;;;5034908;28;20462;-80
2021/07/26 11:54:56;;;;;;;7.17;3.83;;;29.40;80.70;;;;;;5033783;28;20415;-80
2021/07/26 11:57:22;;;;;;;6.13;4.17;;;29.20;77.60;;;;;;5034143;28;20260;-80
2021/07/26 11:59:52;;;;;;;14.43;4.40;;;29.10;79.10;;;;;;5031882;28;20933;-79
2021/07/26 12:02:28;;;;;;;5.10;4.20;;;29.00;78.60;;;;;;5035248;28;20606;-80
2021/07/26 12:04:56;;;;;;;6.83;4.60;;;29.00;80.50;;;;;;5034436;28;20790;-80
2021/07/26 12:07:41;;;;;;;4.47;3.67;;;29.10;81.20;;;;;;5026523;28;20424;-81
2021/07/26 12:10:07;;;;;;;4.30;4.10;;;29.30;78.60;;;;;;5033611;28;20451;-80
2021/07/26 12:12:46;;;;;;;5.50;3.70;;;29.50;79.60;;;;;;5033813;28;20431;-80
2021/07/26 12:15:25;;;;;;;6.00;4.13;;;29.60;79.00;;;;;;5033849;28;20427;-80
2021/07/26 12:18:03;;;;;;;5.30;4.23;;;29.70;78.60;;;;;;5028587;28;20457;-80
2021/07/26 12:20:29;;;;;;;8.40;4.50;;;29.80;79.30;;;;;;5033677;28;20423;-80
2021/07/26 12:22:55;;;;;;;4.47;4.17;;;29.80;81.00;;;;;;5033298;28;20478;-81
2021/07/26 12:25:22;;;;;;;5.23;4.50;;;29.90;79.00;;;;;;5033462;28;20447;-80
2021/07/26 12:28:15;;;;;;;6.03;4.77;;;30.00;78.30;;;;;;5035185;28;20184;-81
2021/07/26 12:30:45;;;;;;;8.07;4.57;;;30.00;77.30;;;;;;5030194;28;20473;-80
2021/07/26 12:33:25;;;;;;;5.90;4.33;;;29.90;77.80;;;;;;5034757;28;20415;-80
2021/07/26 12:35:50;;;;;;;12.60;5.00;;;29.90;79.00;;;;;;5021973;28;20427;-80
2021/07/26 12:38:19;;;;;;;11.93;4.27;;;29.90;78.00;;;;;;5033288;28;20537;-80
2021/07/26 12:41:07;;;;;;;9.67;4.47;;;29.90;79.00;;;;;;5037863;28;20177;-80
2021/07/26 12:43:33;;;;;;;9.57;4.80;;;29.80;79.20;;;;;;5038547;28;20438;-80
2021/07/26 12:46:08;;;;;;;6.30;4.20;;;29.50;78.80;;;;;;5038201;28;20595;-80
2021/07/26 12:48:35;;;;;;;7.97;4.63;;;29.30;79.80;;;;;;5037068;28;20433;-80
2021/07/26 12:51:05;;;;;;;6.17;4.20;;;29.00;79.80;;;;;;5037776;28;20466;-80
2021/07/26 12:53:30;;;;;;;6.73;4.90;;;28.90;80.60;;;;;;5036457;28;20962;-80